Time;durP1;ratioP1;P1;durP2;ratioP2;P2;SDS_P1;SDS_P2;PMS_P1;PMS_P2;Temp;Humidity;BMP_temperature;BMP_pressure;BME280_temperature;BME280_humidity;BME280_pressure;Samples;Min_cycle;Max_cycle;Signal;HPM_P1;HPM_P2
2023/04/24 00:02:13;;;;;;;0.40;0.40;;;11.40;68.00;;;;;;5074768;28;20523;-73
2023/04/24 00:04:44;;;;;;;1.73;0.50;;;11.40;68.70;;;;;;5073569;28;20028;-75
2023/04/24 00:07:10;;;;;;;0.80;0.40;;;11.40;69.20;;;;;;5074820;28;20179;-74
2023/04/24 00:09:36;;;;;;;0.88;0.47;;;11.30;68.50;;;;;;5074645;28;20491;-74
2023/04/24 00:12:04;;;;;;;1.50;0.55;;;11.30;68.80;;;;;;5074691;28;20029;-78
2023/04/24 00:14:30;;;;;;;1.05;0.63;;;11.30;68.00;;;;;;5074777;28;20083;-74
2023/04/24 00:16:55;;;;;;;2.05;0.50;;;11.30;68.20;;;;;;5074420;28;20031;-74
2023/04/24 00:19:21;;;;;;;1.10;0.30;;;11.30;68.70;;;;;;5074557;28;20103;-75
2023/04/24 00:21:49;;;;;;;1.80;0.40;;;11.30;68.10;;;;;;5055856;28;20548;-76
2023/04/24 00:24:16;;;;;;;1.67;0.40;;;11.40;67.90;;;;;;5074637;28;20032;-78
2023/04/24 00:26:41;;;;;;;2.58;0.40;;;11.30;67.10;;;;;;5074478;28;20028;-78
2023/04/24 00:29:07;;;;;;;0.35;0.35;;;11.40;66.80;;;;;;5074354;28;20052;-75
2023/04/24 00:31:34;;;;;;;1.08;0.30;;;11.40;66.50;;;;;;5074600;28;20492;-75
2023/04/24 00:34:00;;;;;;;0.85;0.40;;;11.30;66.90;;;;;;5074246;28;20441;-74
2023/04/24 00:36:26;;;;;;;0.52;0.30;;;11.30;66.60;;;;;;5074041;28;20040;-75
2023/04/24 00:38:52;;;;;;;3.72;0.38;;;11.30;66.30;;;;;;5074157;28;20028;-74
2023/04/24 00:41:18;;;;;;;0.73;0.35;;;11.40;66.20;;;;;;5074218;28;20119;-74
2023/04/24 00:43:44;;;;;;;2.50;0.50;;;11.30;65.70;;;;;;5074111;28;20472;-74
2023/04/24 00:46:10;;;;;;;0.30;0.30;;;11.30;66.10;;;;;;5074074;28;20099;-75
2023/04/24 00:48:38;;;;;;;1.42;0.30;;;11.30;65.90;;;;;;5073978;28;20026;-74
2023/04/24 00:51:04;;;;;;;0.98;0.50;;;11.30;66.20;;;;;;5073975;28;20095;-74
2023/04/24 00:53:30;;;;;;;0.93;0.35;;;11.30;66.70;;;;;;5073849;28;20048;-74
2023/04/24 00:55:56;;;;;;;2.58;0.50;;;11.30;65.70;;;;;;5055909;28;20020;-73
2023/04/24 00:58:22;;;;;;;2.60;0.30;;;11.30;65.80;;;;;;5073689;28;20481;-75
2023/04/24 01:00:50;;;;;;;1.23;0.20;;;11.30;66.20;;;;;;5073778;28;20025;-76
2023/04/24 01:03:16;;;;;;;1.45;0.60;;;11.30;66.10;;;;;;5073717;28;20488;-74
2023/04/24 01:05:42;;;;;;;1.85;0.38;;;11.20;66.00;;;;;;5073878;28;20100;-74
2023/04/24 01:08:07;;;;;;;2.83;0.40;;;11.20;66.80;;;;;;5073552;28;20111;-74
2023/04/24 01:10:34;;;;;;;1.52;0.30;;;11.20;67.00;;;;;;5073496;28;20398;-73
2023/04/24 01:13:00;;;;;;;2.95;0.30;;;11.10;67.80;;;;;;5055641;28;20119;-74
2023/04/24 01:15:26;;;;;;;1.17;0.40;;;11.10;68.70;;;;;;5073504;28;20055;-77
2023/04/24 01:17:51;;;;;;;1.55;0.70;;;11.10;68.20;;;;;;5073293;28;20370;-76
2023/04/24 01:20:17;;;;;;;1.95;0.30;;;11.10;68.40;;;;;;5073342;28;20017;-75
2023/04/24 01:22:43;;;;;;;1.38;0.30;;;11.10;68.70;;;;;;5073337;28;20041;-74
2023/04/24 01:25:08;;;;;;;1.42;0.50;;;11.10;69.40;;;;;;5073349;28;20381;-75
2023/04/24 01:27:34;;;;;;;1.75;0.80;;;11.00;72.60;;;;;;5073148;28;20491;-75
2023/04/24 01:30:00;;;;;;;2.15;0.55;;;10.90;74.20;;;;;;5073317;28;20372;-75
2023/04/24 01:32:26;;;;;;;4.95;0.40;;;10.90;73.40;;;;;;5073075;28;20020;-76
2023/04/24 01:34:52;;;;;;;4.68;0.63;;;10.90;74.80;;;;;;5054326;28;20104;-79
2023/04/24 01:37:18;;;;;;;2.03;0.40;;;10.90;75.40;;;;;;5073090;28;20545;-78
2023/04/24 01:39:44;;;;;;;1.27;0.40;;;10.90;74.40;;;;;;5073303;28;20040;-77
2023/04/24 01:42:09;;;;;;;0.70;0.30;;;10.90;74.90;;;;;;5061846;28;20104;-76
2023/04/24 01:44:35;;;;;;;2.90;1.23;;;10.90;74.70;;;;;;5053154;28;20029;-79
2023/04/24 01:47:01;;;;;;;2.13;1.08;;;10.90;74.60;;;;;;5052685;28;20017;-79
2023/04/24 01:49:27;;;;;;;2.15;1.13;;;10.90;74.30;;;;;;5053266;28;20033;-80
2023/04/24 01:51:53;;;;;;;2.00;0.70;;;10.90;73.60;;;;;;5053162;28;20054;-79
2023/04/24 01:54:19;;;;;;;3.22;0.90;;;10.80;74.70;;;;;;5052910;28;20036;-79
2023/04/24 01:56:45;;;;;;;2.03;0.85;;;10.80;74.60;;;;;;5052883;28;20021;-74
2023/04/24 01:59:12;;;;;;;1.23;0.50;;;10.80;74.70;;;;;;5052846;28;20040;-75
2023/04/24 02:01:38;;;;;;;1.58;0.50;;;10.70;74.50;;;;;;5052866;28;20021;-74
2023/04/24 02:04:05;;;;;;;3.92;0.57;;;10.60;74.50;;;;;;5052791;28;20104;-74
2023/04/24 02:06:31;;;;;;;3.47;0.88;;;10.60;74.10;;;;;;5052776;28;20017;-74
2023/04/24 02:08:58;;;;;;;1.98;0.55;;;10.60;73.70;;;;;;5034752;28;20032;-74
2023/04/24 02:11:23;;;;;;;2.28;0.60;;;10.70;76.00;;;;;;5052577;28;20045;-74
2023/04/24 02:13:50;;;;;;;1.23;0.73;;;10.60;73.70;;;;;;5052762;28;20118;-75
2023/04/24 02:16:15;;;;;;;3.78;0.63;;;10.70;74.90;;;;;;5052696;28;20021;-74
2023/04/24 02:18:41;;;;;;;1.38;0.50;;;10.70;73.70;;;;;;5052512;28;20128;-75
2023/04/24 02:21:06;;;;;;;1.38;0.47;;;10.60;74.20;;;;;;5052765;28;20096;-74
2023/04/24 02:23:32;;;;;;;1.80;0.35;;;10.50;75.10;;;;;;5052495;28;20063;-74
2023/04/24 02:25:57;;;;;;;1.67;0.40;;;10.60;75.70;;;;;;5052572;28;20055;-75
2023/04/24 02:28:23;;;;;;;2.20;0.50;;;10.50;76.40;;;;;;5052529;28;20029;-74
2023/04/24 02:30:49;;;;;;;3.50;0.77;;;10.50;75.40;;;;;;5052573;28;20040;-75
2023/04/24 02:33:15;;;;;;;0.80;0.35;;;10.50;76.10;;;;;;5052313;28;20033;-77
2023/04/24 02:35:40;;;;;;;2.38;0.50;;;10.50;76.20;;;;;;5052307;28;20128;-75
2023/04/24 02:38:06;;;;;;;1.50;0.47;;;10.50;76.50;;;;;;5052495;28;20040;-78
2023/04/24 02:40:31;;;;;;;4.53;0.50;;;10.50;75.70;;;;;;5034662;28;20013;-75
2023/04/24 02:42:57;;;;;;;0.80;0.50;;;10.30;77.00;;;;;;5052310;28;20151;-76
2023/04/24 02:45:23;;;;;;;3.08;0.47;;;10.30;77.20;;;;;;5054210;28;20059;-76
2023/04/24 02:47:48;;;;;;;1.10;0.68;;;10.40;77.00;;;;;;5056256;28;20025;-75
2023/04/24 02:50:14;;;;;;;1.73;0.70;;;10.30;77.10;;;;;;5056081;28;20388;-75
2023/04/24 02:52:39;;;;;;;3.00;0.88;;;10.30;76.90;;;;;;5038306;28;20033;-74
2023/04/24 02:55:05;;;;;;;2.25;0.40;;;10.20;77.30;;;;;;5056116;28;20473;-76
2023/04/24 02:57:31;;;;;;;2.00;0.68;;;10.20;77.00;;;;;;5056036;28;20047;-78
2023/04/24 02:59:56;;;;;;;2.10;0.52;;;10.20;77.80;;;;;;5056093;28;20025;-76
2023/04/24 03:02:22;;;;;;;4.32;0.63;;;10.20;77.90;;;;;;5055945;28;20047;-77
2023/04/24 03:04:48;;;;;;;3.35;0.63;;;10.20;78.00;;;;;;5055800;28;20376;-77
2023/04/24 03:07:14;;;;;;;3.30;0.70;;;10.20;78.30;;;;;;5055885;28;20083;-75
2023/04/24 03:09:40;;;;;;;1.50;0.52;;;10.20;78.50;;;;;;5055808;28;20106;-75
2023/04/24 03:12:06;;;;;;;2.45;0.45;;;10.20;78.20;;;;;;5055603;28;20021;-78
2023/04/24 03:14:31;;;;;;;1.83;0.52;;;10.10;78.00;;;;;;5055633;28;20079;-77
2023/04/24 03:16:57;;;;;;;2.05;0.63;;;10.10;78.40;;;;;;5037530;28;20357;-75
2023/04/24 03:19:23;;;;;;;2.75;0.60;;;10.10;78.20;;;;;;5055604;28;20116;-75
2023/04/24 03:21:49;;;;;;;2.35;0.82;;;10.10;78.90;;;;;;5055732;28;20440;-75
2023/04/24 03:24:15;;;;;;;1.45;0.50;;;10.20;77.70;;;;;;5055496;28;20040;-76
2023/04/24 03:26:40;;;;;;;1.13;0.50;;;10.20;77.10;;;;;;5055483;28;20025;-74
2023/04/24 03:29:06;;;;;;;1.38;0.50;;;10.20;77.00;;;;;;5055385;28;20102;-75
2023/04/24 03:31:31;;;;;;;1.52;0.70;;;10.20;77.50;;;;;;5055468;28;20108;-77
2023/04/24 03:33:57;;;;;;;4.00;0.98;;;10.20;77.60;;;;;;5055268;28;20104;-75
2023/04/24 03:36:22;;;;;;;3.33;0.50;;;10.20;77.70;;;;;;5055243;28;20099;-74
2023/04/24 03:38:48;;;;;;;2.63;0.60;;;10.20;76.30;;;;;;5054896;28;20036;-74
2023/04/24 03:41:13;;;;;;;1.55;0.50;;;10.20;76.20;;;;;;5055164;28;20031;-73
2023/04/24 03:43:39;;;;;;;1.60;0.63;;;10.20;77.10;;;;;;5055004;28;20017;-73
2023/04/24 03:46:05;;;;;;;2.28;0.40;;;10.10;77.50;;;;;;5055105;28;20099;-73
2023/04/24 03:48:30;;;;;;;2.30;0.63;;;10.20;76.70;;;;;;5054747;28;20033;-73
2023/04/24 03:50:56;;;;;;;1.08;0.57;;;10.20;77.90;;;;;;5055054;28;20052;-73
2023/04/24 03:53:21;;;;;;;2.50;0.60;;;10.20;77.60;;;;;;5037079;28;20414;-73
2023/04/24 03:55:47;;;;;;;1.23;0.50;;;10.10;77.30;;;;;;5054304;28;20067;-74
2023/04/24 03:58:14;;;;;;;6.60;0.70;;;10.20;77.60;;;;;;5054278;28;20624;-74
2023/04/24 04:00:40;;;;;;;2.25;0.60;;;10.20;77.80;;;;;;5054645;28;20021;-74
2023/04/24 04:03:06;;;;;;;1.23;0.32;;;10.10;78.80;;;;;;5055507;28;20021;-74
2023/04/24 04:05:31;;;;;;;1.73;0.85;;;10.10;78.90;;;;;;5054968;28;20371;-73
2023/04/24 04:07:57;;;;;;;3.10;0.60;;;10.10;78.90;;;;;;5055896;28;20029;-74
2023/04/24 04:10:23;;;;;;;3.80;0.77;;;10.10;80.00;;;;;;5056826;28;20029;-74
2023/04/24 04:12:49;;;;;;;1.05;0.40;;;10.20;79.60;;;;;;5054701;28;20029;-75
2023/04/24 04:15:14;;;;;;;1.05;0.50;;;10.20;77.80;;;;;;5054652;28;20522;-75
2023/04/24 04:17:40;;;;;;;0.77;0.30;;;10.10;78.10;;;;;;5054464;28;20382;-75
2023/04/24 04:20:09;;;;;;;1.88;0.80;;;10.10;78.40;;;;;;5054625;28;20083;-75
2023/04/24 04:22:36;;;;;;;1.33;0.45;;;10.00;77.50;;;;;;5054566;28;20017;-74
2023/04/24 04:25:02;;;;;;;1.90;0.52;;;10.10;76.30;;;;;;5054571;28;20521;-74
2023/04/24 04:27:28;;;;;;;1.05;0.40;;;10.10;76.80;;;;;;5054381;28;20032;-75
2023/04/24 04:29:56;;;;;;;2.10;0.55;;;10.10;77.10;;;;;;5054549;28;20021;-74
2023/04/24 04:32:22;;;;;;;1.48;0.57;;;10.20;76.80;;;;;;5054323;28;20021;-74
2023/04/24 04:34:49;;;;;;;2.78;0.82;;;10.20;76.70;;;;;;5054071;28;20511;-74
2023/04/24 04:37:14;;;;;;;2.13;0.73;;;10.20;76.90;;;;;;5054246;28;20446;-74
2023/04/24 04:39:40;;;;;;;0.40;0.28;;;10.10;77.00;;;;;;5054191;28;20055;-74
2023/04/24 04:42:06;;;;;;;2.92;0.50;;;10.10;77.10;;;;;;5054143;28;20021;-74
2023/04/24 04:44:32;;;;;;;0.80;0.40;;;10.10;77.90;;;;;;5054056;28;20386;-78
2023/04/24 04:46:59;;;;;;;4.22;2.00;;;10.10;77.80;;;;;;5036188;28;20017;-74
2023/04/24 04:49:24;;;;;;;1.58;0.80;;;10.20;79.40;;;;;;5054070;28;20021;-78
2023/04/24 04:51:50;;;;;;;3.83;1.20;;;10.00;78.10;;;;;;5054092;28;20428;-76
2023/04/24 04:54:16;;;;;;;3.28;1.00;;;9.60;77.00;;;;;;5053844;28;20031;-76
2023/04/24 04:56:42;;;;;;;1.20;0.98;;;9.30;76.70;;;;;;5054138;28;20021;-77
2023/04/24 04:59:07;;;;;;;1.77;0.90;;;9.10;79.20;;;;;;5054211;28;20040;-77
2023/04/24 05:01:33;;;;;;;5.55;1.60;;;8.90;80.80;;;;;;5053879;28;20036;-77
2023/04/24 05:03:58;;;;;;;3.13;1.95;;;8.90;81.10;;;;;;5054038;28;20025;-75
2023/04/24 05:06:25;;;;;;;3.65;1.60;;;8.80;79.60;;;;;;5053742;28;20028;-75
2023/04/24 05:08:51;;;;;;;2.80;1.50;;;8.70;79.40;;;;;;5035618;28;20032;-74
2023/04/24 05:11:16;;;;;;;3.63;2.05;;;8.60;79.50;;;;;;5053553;28;20017;-73
2023/04/24 05:13:42;;;;;;;3.00;1.77;;;8.50;80.10;;;;;;5053372;28;20036;-75
2023/04/24 05:16:07;;;;;;;2.88;1.98;;;8.40;80.20;;;;;;5053142;28;20028;-74
2023/04/24 05:18:33;;;;;;;3.58;1.92;;;8.40;80.80;;;;;;5053174;28;20041;-74
2023/04/24 05:20:59;;;;;;;6.75;1.95;;;8.40;79.70;;;;;;5053256;28;20025;-74
2023/04/24 05:23:24;;;;;;;5.43;2.40;;;8.30;80.40;;;;;;5053077;28;20124;-74
2023/04/24 05:25:50;;;;;;;3.35;2.20;;;8.20;80.80;;;;;;5052971;28;20087;-76
2023/04/24 05:28:16;;;;;;;3.80;2.42;;;8.30;81.00;;;;;;5052924;28;20369;-76
2023/04/24 05:30:41;;;;;;;2.33;1.73;;;8.40;79.20;;;;;;5034235;28;20078;-77
2023/04/24 05:33:08;;;;;;;3.15;1.77;;;8.50;78.70;;;;;;5052976;28;20037;-76
2023/04/24 05:35:33;;;;;;;2.22;1.77;;;8.40;78.70;;;;;;5052607;28;20037;-74
2023/04/24 05:37:59;;;;;;;2.72;1.58;;;8.40;79.00;;;;;;5052870;28;20048;-76
2023/04/24 05:40:25;;;;;;;3.67;1.60;;;8.50;77.60;;;;;;5052867;28;20021;-75
2023/04/24 05:42:50;;;;;;;2.13;1.58;;;8.60;78.00;;;;;;5052658;28;20446;-77
2023/04/24 05:45:16;;;;;;;5.13;1.80;;;8.60;76.90;;;;;;5052766;28;20021;-77
2023/04/24 05:47:43;;;;;;;3.30;1.75;;;8.70;77.20;;;;;;5034566;28;20139;-76
2023/04/24 05:50:10;;;;;;;3.65;1.50;;;8.70;76.50;;;;;;5034932;28;20214;-79
2023/04/24 05:52:35;;;;;;;4.57;2.22;;;8.70;76.90;;;;;;5053207;28;20029;-80
2023/04/24 05:55:01;;;;;;;2.58;1.65;;;8.90;76.40;;;;;;5053202;28;20023;-78
2023/04/24 05:57:26;;;;;;;2.30;1.42;;;9.00;76.10;;;;;;5054284;28;20097;-79
2023/04/24 05:59:52;;;;;;;3.30;1.77;;;9.00;75.80;;;;;;5052795;28;20492;-80
2023/04/24 06:02:18;;;;;;;2.97;1.83;;;9.00;76.40;;;;;;5052796;28;20350;-78
2023/04/24 06:04:44;;;;;;;4.95;2.10;;;9.10;76.40;;;;;;5052505;28;20033;-78
2023/04/24 06:07:11;;;;;;;3.25;1.90;;;9.20;75.40;;;;;;5052651;28;20021;-79
2023/04/24 06:09:36;;;;;;;2.08;1.58;;;9.30;76.00;;;;;;5034629;28;20025;-77
2023/04/24 06:12:02;;;;;;;4.60;1.50;;;9.40;74.90;;;;;;5052284;28;20087;-76
2023/04/24 06:14:28;;;;;;;4.85;1.58;;;9.50;75.60;;;;;;5052539;28;20025;-77
2023/04/24 06:16:53;;;;;;;4.43;1.85;;;9.60;74.50;;;;;;5053093;28;20108;-74
2023/04/24 06:19:19;;;;;;;2.35;1.50;;;9.70;75.80;;;;;;5052668;28;20052;-76
2023/04/24 06:21:45;;;;;;;4.70;1.90;;;9.80;74.20;;;;;;5056466;28;20491;-74
2023/04/24 06:24:10;;;;;;;3.83;1.63;;;9.90;73.90;;;;;;5056509;28;20036;-74
2023/04/24 06:26:36;;;;;;;3.00;1.50;;;10.00;72.40;;;;;;5056549;28;20081;-74
2023/04/24 06:29:02;;;;;;;3.90;2.17;;;10.20;72.10;;;;;;5056356;28;20025;-73
2023/04/24 06:31:27;;;;;;;2.45;1.60;;;10.00;71.50;;;;;;5056309;28;20491;-74
2023/04/24 06:33:54;;;;;;;5.82;1.73;;;10.10;72.30;;;;;;5038409;28;20021;-73
2023/04/24 06:36:19;;;;;;;2.55;1.48;;;10.20;71.00;;;;;;5056282;28;20044;-74
2023/04/24 06:38:45;;;;;;;3.10;1.40;;;10.40;69.30;;;;;;5056316;28;20393;-74
2023/04/24 06:41:10;;;;;;;2.13;1.50;;;10.30;69.20;;;;;;5056079;28;20036;-75
2023/04/24 06:43:36;;;;;;;4.78;1.77;;;10.20;69.40;;;;;;5056038;28;20024;-74
2023/04/24 06:46:03;;;;;;;2.53;1.80;;;10.30;70.00;;;;;;5056221;28;20029;-74
2023/04/24 06:48:29;;;;;;;2.88;1.73;;;10.40;69.80;;;;;;5056034;28;20021;-77
2023/04/24 06:50:55;;;;;;;5.35;1.75;;;10.30;71.20;;;;;;5055924;28;20075;-77
2023/04/24 06:53:20;;;;;;;5.32;1.90;;;10.30;71.20;;;;;;5055734;28;20021;-76
2023/04/24 06:55:46;;;;;;;3.35;1.48;;;10.30;71.20;;;;;;5055971;28;20021;-76
2023/04/24 06:58:12;;;;;;;1.60;1.30;;;10.20;71.30;;;;;;5038043;28;20041;-76
2023/04/24 07:00:37;;;;;;;1.48;1.15;;;10.20;70.20;;;;;;5055842;28;20105;-77
2023/04/24 07:03:05;;;;;;;2.15;1.30;;;10.00;70.50;;;;;;5055547;28;20032;-76
2023/04/24 07:05:31;;;;;;;2.45;1.23;;;10.10;70.70;;;;;;5055578;28;20104;-76
2023/04/24 07:07:58;;;;;;;3.15;1.70;;;10.20;70.20;;;;;;5055549;28;20053;-76
2023/04/24 07:10:24;;;;;;;1.40;1.30;;;10.20;70.60;;;;;;5055447;28;20028;-77
2023/04/24 07:12:50;;;;;;;2.90;1.35;;;10.40;71.00;;;;;;5055511;28;20037;-75
2023/04/24 07:15:16;;;;;;;2.15;1.38;;;10.40;70.50;;;;;;5055436;28;20071;-75
2023/04/24 07:17:44;;;;;;;3.95;1.42;;;10.50;70.10;;;;;;5056548;28;20033;-75
2023/04/24 07:20:11;;;;;;;2.65;1.30;;;10.60;70.20;;;;;;5074901;28;20060;-75
2023/04/24 07:22:38;;;;;;;2.63;1.20;;;10.60;69.50;;;;;;5064914;28;20473;-75
2023/04/24 07:25:04;;;;;;;2.17;1.20;;;10.40;69.60;;;;;;5055408;28;20036;-75
2023/04/24 07:27:30;;;;;;;2.33;1.00;;;10.40;70.40;;;;;;5037453;28;20063;-75
2023/04/24 07:29:55;;;;;;;2.08;0.82;;;10.20;73.40;;;;;;5055357;28;20021;-75
2023/04/24 07:32:21;;;;;;;3.17;0.80;;;9.90;73.70;;;;;;5037287;28;20021;-75
2023/04/24 07:34:46;;;;;;;1.00;0.88;;;9.50;75.50;;;;;;5055176;28;20025;-75
2023/04/24 07:37:12;;;;;;;5.28;1.00;;;9.30;76.50;;;;;;5055061;28;20051;-75
2023/04/24 07:39:38;;;;;;;1.35;1.00;;;8.90;78.80;;;;;;5037037;28;20025;-75
2023/04/24 07:42:04;;;;;;;1.10;1.00;;;8.50;80.80;;;;;;5055013;28;20021;-75
2023/04/24 07:44:31;;;;;;;1.73;0.90;;;8.40;81.90;;;;;;5055268;28;20462;-75
2023/04/24 07:46:57;;;;;;;2.15;1.30;;;8.20;82.80;;;;;;5054901;28;20049;-77
2023/04/24 07:49:22;;;;;;;2.45;1.00;;;8.30;82.90;;;;;;5055101;28;20056;-76
2023/04/24 07:51:49;;;;;;;0.90;0.70;;;8.40;82.70;;;;;;5055026;28;20079;-76
2023/04/24 07:54:15;;;;;;;1.80;0.80;;;8.50;82.50;;;;;;5055042;28;20021;-76
2023/04/24 07:56:42;;;;;;;0.93;0.80;;;8.60;82.00;;;;;;5054938;28;20032;-76
2023/04/24 07:59:09;;;;;;;0.75;0.70;;;8.80;82.00;;;;;;5054672;28;20037;-76
2023/04/24 08:01:35;;;;;;;2.58;1.30;;;8.80;82.50;;;;;;5054812;28;20094;-76
2023/04/24 08:04:01;;;;;;;1.67;1.00;;;8.80;81.80;;;;;;5054956;28;20446;-76
2023/04/24 08:06:31;;;;;;;1.90;0.82;;;9.00;81.30;;;;;;5036962;28;20653;-76
2023/04/24 08:08:57;;;;;;;0.82;0.82;;;9.10;81.00;;;;;;5054641;28;20021;-75
2023/04/24 08:11:24;;;;;;;2.05;1.52;;;9.30;81.10;;;;;;5054619;28;20029;-76
2023/04/24 08:13:49;;;;;;;0.82;0.80;;;9.40;80.20;;;;;;5073027;28;20035;-76
2023/04/24 08:16:15;;;;;;;1.38;0.98;;;9.40;78.90;;;;;;5073629;28;20028;-76
2023/04/24 08:18:40;;;;;;;1.95;0.93;;;9.60;78.40;;;;;;5072211;28;20580;-76
2023/04/24 08:21:06;;;;;;;2.22;1.52;;;9.80;77.20;;;;;;5073679;28;20021;-76
2023/04/24 08:23:32;;;;;;;2.42;1.20;;;10.00;79.50;;;;;;5073936;28;20071;-76
2023/04/24 08:25:57;;;;;;;3.58;1.83;;;10.00;78.00;;;;;;5074542;28;20054;-76
2023/04/24 08:28:23;;;;;;;3.80;1.75;;;9.90;77.20;;;;;;5057040;28;20021;-76
2023/04/24 08:30:54;;;;;;;2.72;2.00;;;10.00;79.20;;;;;;5076512;28;20020;-76
2023/04/24 08:33:20;;;;;;;4.50;1.70;;;10.10;75.80;;;;;;5074465;28;20029;-77
2023/04/24 08:35:45;;;;;;;3.05;1.52;;;10.20;75.30;;;;;;5074080;28;20041;-76
2023/04/24 08:38:11;;;;;;;2.78;1.77;;;10.20;73.70;;;;;;5073838;28;20089;-76
2023/04/24 08:40:37;;;;;;;2.45;1.60;;;10.30;73.80;;;;;;5056211;28;20077;-76
2023/04/24 08:43:03;;;;;;;2.80;1.63;;;10.40;74.30;;;;;;5073495;28;20024;-76
2023/04/24 08:45:29;;;;;;;3.40;1.98;;;10.30;75.60;;;;;;5074037;28;20029;-75
2023/04/24 08:47:55;;;;;;;6.32;3.00;;;10.50;75.50;;;;;;5056960;28;20021;-75
2023/04/24 08:50:22;;;;;;;3.58;2.05;;;10.80;75.00;;;;;;5035324;28;20033;-75
2023/04/24 08:52:50;;;;;;;5.63;1.80;;;11.00;73.80;;;;;;5054203;28;20021;-76
2023/04/24 08:55:17;;;;;;;3.20;1.98;;;11.10;64.10;;;;;;5054185;28;20052;-76
2023/04/24 08:57:45;;;;;;;5.93;2.00;;;11.00;62.10;;;;;;5054419;28;20447;-75
2023/04/24 09:00:11;;;;;;;4.15;1.63;;;10.80;58.50;;;;;;5054467;28;20066;-76
2023/04/24 09:02:39;;;;;;;3.28;1.83;;;10.80;59.20;;;;;;5058418;28;20029;-76
2023/04/24 09:05:06;;;;;;;5.43;2.35;;;10.70;65.60;;;;;;5064396;28;20028;-76
2023/04/24 09:07:36;;;;;;;4.55;1.95;;;10.70;68.60;;;;;;5067345;28;20032;-76
2023/04/24 09:10:02;;;;;;;5.75;1.83;;;10.80;68.00;;;;;;5069927;28;20025;-76
2023/04/24 09:12:28;;;;;;;4.78;1.90;;;10.70;64.50;;;;;;5069986;28;20052;-76
2023/04/24 09:14:55;;;;;;;3.42;2.00;;;10.70;62.20;;;;;;5070059;28;20036;-76
2023/04/24 09:17:22;;;;;;;4.90;1.80;;;10.90;59.60;;;;;;5069637;28;20027;-76
2023/04/24 09:19:48;;;;;;;3.00;1.58;;;10.70;57.10;;;;;;5065221;28;20393;-76
2023/04/24 09:22:15;;;;;;;4.25;2.08;;;10.60;59.00;;;;;;5055308;28;20033;-77
2023/04/24 09:24:41;;;;;;;3.85;1.70;;;10.50;59.70;;;;;;5035644;28;20452;-75
2023/04/24 09:27:07;;;;;;;3.45;1.73;;;10.20;58.00;;;;;;5054399;28;20092;-75
2023/04/24 09:29:32;;;;;;;4.47;2.10;;;10.00;58.40;;;;;;5054231;28;20025;-75
2023/04/24 09:31:58;;;;;;;4.82;2.05;;;10.00;59.00;;;;;;5053978;28;20028;-75
2023/04/24 09:34:26;;;;;;;3.35;2.03;;;9.70;61.60;;;;;;5054736;28;20143;-75
2023/04/24 09:36:53;;;;;;;2.55;1.80;;;9.50;63.80;;;;;;5056796;28;20056;-76
2023/04/24 09:39:22;;;;;;;2.00;1.80;;;9.40;63.60;;;;;;5054452;28;20051;-76
2023/04/24 09:41:53;;;;;;;3.47;1.80;;;9.40;65.30;;;;;;5053106;28;20025;-75
2023/04/24 09:44:21;;;;;;;2.88;1.45;;;9.40;67.10;;;;;;5058050;28;20036;-74
2023/04/24 09:46:59;;;;;;;1.63;1.33;;;9.60;67.50;;;;;;5052294;28;20469;-75
2023/04/24 09:49:27;;;;;;;3.05;1.70;;;9.80;65.00;;;;;;5053011;28;20473;-75
2023/04/24 09:52:07;;;;;;;4.68;1.85;;;10.10;66.00;;;;;;5052583;28;20025;-75
2023/04/24 09:54:33;;;;;;;4.70;1.65;;;10.50;63.30;;;;;;5051861;28;20094;-75
2023/04/24 09:57:00;;;;;;;4.88;1.98;;;10.80;61.20;;;;;;5052589;28;20053;-75
2023/04/24 09:59:25;;;;;;;5.43;1.58;;;10.70;60.70;;;;;;5052341;28;20033;-74
2023/04/24 10:01:52;;;;;;;2.63;1.58;;;10.70;61.80;;;;;;5052201;28;20017;-76
2023/04/24 10:04:24;;;;;;;5.63;2.20;;;10.70;59.80;;;;;;5052095;28;20043;-76
2023/04/24 10:06:51;;;;;;;3.30;2.00;;;10.70;60.80;;;;;;5052257;28;20040;-76
2023/04/24 10:09:18;;;;;;;3.20;1.80;;;10.50;59.20;;;;;;5052007;28;20462;-76
2023/04/24 10:11:46;;;;;;;4.13;1.95;;;10.40;60.30;;;;;;5052503;28;20035;-76
2023/04/24 10:14:17;;;;;;;3.70;1.92;;;9.90;63.40;;;;;;5034269;28;20492;-76
2023/04/24 10:16:46;;;;;;;4.90;2.25;;;9.70;66.50;;;;;;5052508;28;20029;-75
2023/04/24 10:19:13;;;;;;;3.95;2.15;;;9.60;67.50;;;;;;5052135;28;20057;-76
2023/04/24 10:21:42;;;;;;;5.95;2.78;;;9.30;71.50;;;;;;5067028;28;20463;-76
2023/04/24 10:24:08;;;;;;;4.47;2.33;;;9.30;72.50;;;;;;5070010;28;20025;-76
2023/04/24 10:26:35;;;;;;;4.55;2.70;;;9.20;70.60;;;;;;5070548;28;20013;-75
2023/04/24 10:29:01;;;;;;;7.90;2.33;;;9.30;71.40;;;;;;5070276;28;20043;-74
2023/04/24 10:31:30;;;;;;;2.78;2.20;;;9.60;69.50;;;;;;5070698;28;20078;-75
2023/04/24 10:33:57;;;;;;;5.55;2.97;;;9.90;67.50;;;;;;5070444;28;20025;-76
2023/04/24 10:36:26;;;;;;;3.25;1.92;;;10.20;66.70;;;;;;5047003;28;20405;-74
2023/04/24 10:38:55;;;;;;;3.75;2.20;;;10.50;63.60;;;;;;5050719;28;20031;-73
2023/04/24 10:41:23;;;;;;;6.55;2.60;;;10.70;62.40;;;;;;5050592;28;20010;-76
2023/04/24 10:44:03;;;;;;;3.30;1.85;;;10.60;60.60;;;;;;5051493;28;20032;-76
2023/04/24 10:46:30;;;;;;;3.70;1.77;;;10.50;60.40;;;;;;5051226;28;20096;-76
2023/04/24 10:48:56;;;;;;;3.30;1.63;;;10.60;61.90;;;;;;5051895;28;20024;-75
2023/04/24 10:51:22;;;;;;;3.67;1.40;;;10.70;59.80;;;;;;5050296;28;20021;-75
2023/04/24 10:53:50;;;;;;;4.65;1.80;;;10.70;56.20;;;;;;5051426;28;20025;-76
2023/04/24 10:56:16;;;;;;;3.75;1.83;;;10.80;55.50;;;;;;5051164;28;20484;-75
2023/04/24 10:58:51;;;;;;;2.78;1.70;;;10.90;53.50;;;;;;5051448;28;20330;-76
2023/04/24 11:01:29;;;;;;;5.72;1.60;;;11.30;51.90;;;;;;5051473;28;20148;-77
2023/04/24 11:03:57;;;;;;;3.80;1.67;;;11.10;52.70;;;;;;5051260;28;20036;-77
2023/04/24 11:06:36;;;;;;;6.22;1.88;;;11.40;50.90;;;;;;5053697;28;20465;-76
2023/04/24 11:09:16;;;;;;;3.65;1.52;;;11.60;52.20;;;;;;5055332;28;20036;-76
2023/04/24 11:11:46;;;;;;;5.25;1.30;;;11.50;50.20;;;;;;5055014;28;20070;-75
2023/04/24 11:14:15;;;;;;;3.15;1.10;;;11.30;51.40;;;;;;5055264;28;20017;-76
2023/04/24 11:17:00;;;;;;;3.33;1.50;;;11.10;50.90;;;;;;5055469;28;20025;-77
2023/04/24 11:19:28;;;;;;;1.30;1.00;;;11.00;51.60;;;;;;5056027;28;20040;-84
2023/04/24 11:22:03;;;;;;;4.93;1.50;;;11.10;50.90;;;;;;5055405;28;20388;-79
2023/04/24 11:24:35;;;;;;;4.38;1.25;;;11.10;51.40;;;;;;5053980;28;20028;-79
2023/04/24 11:27:04;;;;;;;2.50;1.20;;;11.10;51.10;;;;;;5054060;28;20112;-83
2023/04/24 11:29:45;;;;;;;2.75;0.90;;;11.20;50.20;;;;;;5055350;28;20017;-75
2023/04/24 11:32:27;;;;;;;11.95;3.65;;;11.30;50.20;;;;;;5055053;28;20025;-72
2023/04/24 11:35:07;;;;;;;4.85;1.67;;;11.60;64.40;;;;;;5057414;28;20029;-72
2023/04/24 11:37:38;;;;;;;3.00;1.48;;;11.90;55.20;;;;;;5075311;28;20354;-79
2023/04/24 11:40:06;;;;;;;7.80;2.28;;;12.00;51.90;;;;;;5075107;28;20028;-74
2023/04/24 11:42:38;;;;;;;2.40;0.85;;;12.00;51.60;;;;;;5075155;28;20089;-77
2023/04/24 11:45:15;;;;;;;6.10;1.63;;;11.90;49.30;;;;;;5075023;28;20054;-76
2023/04/24 11:47:41;;;;;;;5.22;1.30;;;12.20;51.80;;;;;;5056956;28;20024;-74
2023/04/24 11:50:12;;;;;;;2.65;1.15;;;12.20;50.50;;;;;;5075135;28;20040;-76
2023/04/24 11:52:40;;;;;;;6.38;2.72;;;12.10;51.50;;;;;;5075112;28;20032;-77
2023/04/24 11:55:29;;;;;;;2.78;1.48;;;11.90;49.70;;;;;;5074955;28;20506;-76
2023/04/24 11:57:59;;;;;;;1.65;0.90;;;11.30;50.50;;;;;;5066738;28;20044;-76
2023/04/24 12:00:29;;;;;;;1.83;0.90;;;11.20;49.50;;;;;;5056818;28;20048;-76
2023/04/24 12:03:11;;;;;;;3.78;1.85;;;10.80;48.70;;;;;;5074882;28;20017;-76
2023/04/24 12:05:38;;;;;;;1.92;0.95;;;10.60;50.60;;;;;;5057068;28;20101;-73
2023/04/24 12:08:04;;;;;;;3.83;2.22;;;10.40;51.10;;;;;;5059647;28;20126;-75
2023/04/24 12:10:31;;;;;;;3.78;1.27;;;10.40;50.80;;;;;;5058261;28;20083;-76
2023/04/24 12:12:58;;;;;;;2.00;0.90;;;10.40;50.10;;;;;;5074478;28;20047;-80
2023/04/24 12:15:25;;;;;;;1.92;1.10;;;10.30;50.80;;;;;;5074321;28;20380;-81
2023/04/24 12:17:52;;;;;;;2.08;0.98;;;10.20;51.60;;;;;;5073084;28;20173;-79
2023/04/24 12:20:23;;;;;;;2.42;1.10;;;10.30;51.80;;;;;;5074317;28;20219;-76
2023/04/24 12:22:54;;;;;;;1.45;0.95;;;10.30;51.80;;;;;;5074432;28;20032;-76
2023/04/24 12:25:21;;;;;;;3.63;1.02;;;10.20;52.30;;;;;;5074146;28;20036;-76
2023/04/24 12:27:53;;;;;;;2.42;0.93;;;10.20;51.50;;;;;;5074157;28;20016;-76
2023/04/24 12:30:19;;;;;;;1.20;1.10;;;10.20;51.20;;;;;;5074021;28;20023;-76
2023/04/24 12:32:47;;;;;;;1.58;0.93;;;10.30;52.30;;;;;;5073957;28;20119;-76
2023/04/24 12:35:18;;;;;;;1.73;1.00;;;10.30;52.40;;;;;;5073820;28;20095;-76
2023/04/24 12:37:44;;;;;;;3.63;0.90;;;10.30;53.00;;;;;;5073881;28;20032;-76
2023/04/24 12:40:11;;;;;;;2.83;1.27;;;10.50;52.10;;;;;;5072570;28;20021;-76
2023/04/24 12:42:45;;;;;;;2.00;0.90;;;10.60;52.80;;;;;;5073844;28;20013;-76
2023/04/24 12:45:12;;;;;;;3.22;1.30;;;10.80;51.90;;;;;;5073826;28;20035;-76
2023/04/24 12:47:38;;;;;;;2.90;1.13;;;11.00;51.30;;;;;;5073476;28;20124;-77
2023/04/24 12:50:05;;;;;;;3.67;0.98;;;11.10;51.00;;;;;;5073438;28;20053;-76